KCRE/CRE METAR and TAF weather

Enter ICAO airport designator
Station Type Date Time Source
KCRE METAR 2019/08/22 02:53 UTC NOAA

KCRE 220253Z AUTO 23015G20KT 10SM CLR 28/24 A3006 RMK AO1 SLP181 T02830239 51009


Station Type Date Time Source
KCRE Decoded METAR 2019/08/22 02:53 UTC NOAA

Station name not available
Aug 21, 2019 - 10:53 PM EDT / 2019.08.22 0253 UTC
Wind: from the SW (230 degrees) at 17 MPH (15 KT) gusting to 23 MPH (20 KT):0
Visibility: 10 mile(s):0
Sky conditions: clear
Temperature: 82.9 F (28.3 C)
Dew Point: 75.0 F (23.9 C)
Relative Humidity: 77%
Pressure (altimeter): 30.06 in. Hg (1017 hPa)
Pressure tendency: 0.03 inches (0.9 hPa) higher than three hours ago
ob: KCRE 220253Z AUTO 23015G20KT 10SM CLR 28/24 A3006 RMK AO1 SLP181 T02830239 51009
cycle: 3

Station Type Date Time Source
KCRE TAF 2019/08/21 18:22 UTC NOAA

TAF KCRE 211720Z 2118/2218 20012KT P6SM SCT035
FM220200 22009KT P6SM FEW250
FM221500 20011KT P6SM SCT040

Example: see airport list